createdAt,value
2018-12-19T00:01:45.943Z,31.70
2018-12-19T00:04:13.424Z,30.60
2018-12-19T00:06:40.947Z,30.70
2018-12-19T00:09:08.515Z,27.43
2018-12-19T00:11:36.032Z,30.20
2018-12-19T00:14:03.530Z,28.77
2018-12-19T00:16:31.094Z,30.93
2018-12-19T00:18:58.633Z,32.63
2018-12-19T00:21:26.143Z,28.57
2018-12-19T00:23:53.674Z,30.20
2018-12-19T00:26:21.257Z,29.60
2018-12-19T00:28:48.736Z,29.03
2018-12-19T00:31:16.289Z,25.63
2018-12-19T00:33:43.753Z,29.23
2018-12-19T00:36:11.238Z,27.50
2018-12-19T00:38:38.763Z,29.27
2018-12-19T00:41:06.267Z,27.40
2018-12-19T00:43:33.735Z,28.43
2018-12-19T00:46:01.264Z,29.97
2018-12-19T00:48:28.805Z,28.03
2018-12-19T00:50:56.364Z,26.07
2018-12-19T00:53:23.945Z,28.43
2018-12-19T00:55:51.445Z,26.40
2018-12-19T00:58:18.958Z,25.77
2018-12-19T01:00:46.456Z,26.90
2018-12-19T01:03:13.941Z,28.37
2018-12-19T01:05:41.432Z,25.27
2018-12-19T01:08:09.007Z,27.37
2018-12-19T01:10:36.550Z,21.60
2018-12-19T01:13:04.089Z,27.70
2018-12-19T01:15:31.578Z,26.37
2018-12-19T01:17:59.060Z,27.67
2018-12-19T01:20:26.599Z,25.10
2018-12-19T01:22:54.178Z,28.33
2018-12-19T01:25:21.727Z,27.90
2018-12-19T01:27:49.293Z,26.00
2018-12-19T01:30:16.787Z,25.70
2018-12-19T01:32:44.274Z,25.37
2018-12-19T01:35:11.774Z,28.67
2018-12-19T01:37:39.262Z,26.97
2018-12-19T01:40:07.160Z,26.67
2018-12-19T01:42:34.640Z,26.03
2018-12-19T01:45:02.204Z,26.53
2018-12-19T01:47:29.769Z,28.23
2018-12-19T01:49:57.259Z,28.83
2018-12-19T01:52:24.777Z,26.17
2018-12-19T01:54:52.365Z,28.83
2018-12-19T01:57:19.857Z,26.03
2018-12-19T01:59:47.350Z,27.73
2018-12-19T02:02:14.907Z,25.33
2018-12-19T02:04:42.442Z,28.43
2018-12-19T02:07:09.998Z,26.00
2018-12-19T02:09:37.478Z,24.90
2018-12-19T02:12:04.966Z,23.97
2018-12-19T02:14:32.442Z,27.27
2018-12-19T02:17:00.062Z,24.53
2018-12-19T02:19:27.553Z,26.80
2018-12-19T02:21:55.124Z,25.93
2018-12-19T02:24:22.652Z,25.37
2018-12-19T02:26:50.142Z,26.60
2018-12-19T02:29:17.648Z,27.03
2018-12-19T02:31:45.156Z,28.30
2018-12-19T02:34:12.867Z,27.00
2018-12-19T02:36:40.374Z,26.93
2018-12-19T02:39:07.885Z,24.70
2018-12-19T02:41:35.421Z,27.33
2018-12-19T02:44:03.275Z,28.03
2018-12-19T02:46:30.823Z,26.30
2018-12-19T02:48:58.397Z,29.00
2018-12-19T02:51:25.878Z,26.60
2018-12-19T02:53:53.354Z,27.60
2018-12-19T02:56:21.149Z,28.63
2018-12-19T02:58:48.682Z,26.00
2018-12-19T03:01:16.185Z,29.70
2018-12-19T03:03:43.780Z,25.67
2018-12-19T03:06:11.251Z,28.03
2018-12-19T03:08:38.774Z,26.10
2018-12-19T03:11:06.346Z,24.47
2018-12-19T03:13:34.053Z,26.67
2018-12-19T03:16:01.548Z,24.57
2018-12-19T03:18:29.034Z,28.40
2018-12-19T03:20:56.517Z,25.83
2018-12-19T03:23:24.011Z,24.47
2018-12-19T03:25:51.597Z,26.60
2018-12-19T03:28:19.093Z,27.20
2018-12-19T03:30:46.643Z,25.63
2018-12-19T03:33:14.257Z,26.53
2018-12-19T03:35:41.733Z,32.70
2018-12-19T03:38:11.157Z,29.13
2018-12-19T03:40:38.619Z,30.60
2018-12-19T03:43:06.142Z,26.03
2018-12-19T03:45:33.610Z,21.87
2018-12-19T03:48:01.169Z,23.97
2018-12-19T03:50:28.648Z,24.93
2018-12-19T03:52:56.505Z,24.47
2018-12-19T03:55:24.089Z,25.47
2018-12-19T03:57:51.688Z,26.53
2018-12-19T04:00:19.274Z,25.13
2018-12-19T04:02:46.824Z,23.87
2018-12-19T04:05:14.296Z,22.23
2018-12-19T04:07:41.840Z,27.23
2018-12-19T04:10:09.422Z,24.47
2018-12-19T04:12:36.935Z,24.33
2018-12-19T04:15:04.663Z,23.33
2018-12-19T04:17:32.130Z,22.30
2018-12-19T04:19:59.618Z,22.50
2018-12-19T04:22:27.132Z,23.50
2018-12-19T04:24:54.686Z,24.00
2018-12-19T04:27:22.179Z,22.40
2018-12-19T04:29:49.769Z,24.27
2018-12-19T04:32:17.262Z,22.90
2018-12-19T04:34:44.762Z,22.27
2018-12-19T04:37:12.257Z,23.73
2018-12-19T04:39:39.749Z,22.57
2018-12-19T04:42:07.230Z,23.03
2018-12-19T04:44:34.768Z,22.03
2018-12-19T04:47:02.261Z,23.67
2018-12-19T04:49:29.847Z,23.57
2018-12-19T04:51:57.438Z,24.00
2018-12-19T04:54:24.946Z,24.23
2018-12-19T04:56:52.487Z,27.03
2018-12-19T04:59:20.013Z,23.40
2018-12-19T05:01:47.510Z,24.47
2018-12-19T05:04:15.015Z,24.97
2018-12-19T05:06:42.562Z,24.23
2018-12-19T05:09:10.056Z,22.93
2018-12-19T05:11:37.726Z,22.70
2018-12-19T05:14:05.249Z,22.43
2018-12-19T05:16:32.771Z,23.90
2018-12-19T05:19:00.269Z,22.83
2018-12-19T05:21:27.875Z,25.43
2018-12-19T05:23:55.352Z,22.60
2018-12-19T05:26:22.856Z,22.03
2018-12-19T05:28:50.344Z,22.23
2018-12-19T05:31:17.922Z,23.07
2018-12-19T05:33:45.421Z,22.37
2018-12-19T05:36:12.932Z,21.07
2018-12-19T05:38:40.426Z,30.37
2018-12-19T05:41:07.945Z,26.37
2018-12-19T05:43:35.405Z,22.33
2018-12-19T05:46:02.904Z,24.03
2018-12-19T05:48:30.408Z,25.90
2018-12-19T05:50:57.892Z,21.40
2018-12-19T05:53:25.438Z,22.63
2018-12-19T05:55:53.034Z,22.97
2018-12-19T05:58:20.510Z,21.97
2018-12-19T06:00:48.020Z,25.73
2018-12-19T06:03:15.589Z,21.07
2018-12-19T06:05:43.088Z,23.07
2018-12-19T06:08:10.598Z,21.13
2018-12-19T06:10:38.082Z,25.17
2018-12-19T06:13:05.571Z,20.47
2018-12-19T06:15:33.103Z,21.90
2018-12-19T06:18:00.581Z,20.63
2018-12-19T06:20:28.092Z,20.30
2018-12-19T06:22:55.584Z,20.77
2018-12-19T06:25:23.077Z,18.67
2018-12-19T06:27:50.786Z,21.43
2018-12-19T06:30:18.774Z,20.77
2018-12-19T06:32:46.252Z,22.43
2018-12-19T06:35:13.721Z,28.43
2018-12-19T06:37:41.255Z,20.50
2018-12-19T06:40:08.784Z,22.57
2018-12-19T06:42:36.349Z,21.80
2018-12-19T06:45:05.343Z,19.17
2018-12-19T06:47:32.908Z,18.77
2018-12-19T06:50:00.399Z,20.83
2018-12-19T06:52:27.929Z,22.63
2018-12-19T06:54:55.420Z,21.60
2018-12-19T06:57:22.913Z,20.10
2018-12-19T06:59:50.421Z,20.60
2018-12-19T07:02:17.972Z,19.90
2018-12-19T07:04:45.554Z,20.40
2018-12-19T07:07:13.057Z,19.77
2018-12-19T07:09:40.531Z,20.43
2018-12-19T07:12:08.027Z,20.20
2018-12-19T07:14:37.422Z,19.53
2018-12-19T07:17:04.909Z,18.03
2018-12-19T07:19:32.410Z,19.80
2018-12-19T07:21:59.922Z,20.60
2018-12-19T07:24:27.450Z,20.47
2018-12-19T07:26:54.962Z,23.47
2018-12-19T07:29:22.462Z,22.13
2018-12-19T07:31:50.033Z,21.63
2018-12-19T07:34:17.514Z,19.97
2018-12-19T07:36:45.160Z,19.20
2018-12-19T07:39:12.653Z,20.07
2018-12-19T07:41:40.175Z,21.93
2018-12-19T07:44:07.712Z,23.63
2018-12-19T07:46:35.192Z,20.37
2018-12-19T07:49:02.765Z,20.70
2018-12-19T07:51:30.230Z,20.00
2018-12-19T07:53:57.802Z,18.27
2018-12-19T07:56:25.284Z,19.80
2018-12-19T07:58:52.796Z,19.10
2018-12-19T08:01:20.356Z,19.17
2018-12-19T08:03:47.878Z,19.67
2018-12-19T08:06:15.379Z,18.70
2018-12-19T08:08:42.924Z,20.00
2018-12-19T08:11:10.493Z,21.67
2018-12-19T08:13:37.988Z,20.07
2018-12-19T08:16:05.513Z,19.97
2018-12-19T08:18:33.070Z,19.70
2018-12-19T08:21:00.553Z,21.87
2018-12-19T08:23:28.075Z,19.00
2018-12-19T08:25:55.525Z,20.60
2018-12-19T08:28:23.031Z,18.10
2018-12-19T08:30:50.600Z,21.83
2018-12-19T08:33:18.120Z,19.20
2018-12-19T08:35:45.631Z,21.87
2018-12-19T08:38:13.320Z,24.37
2018-12-19T08:40:40.915Z,20.53
2018-12-19T08:43:08.406Z,20.50
2018-12-19T08:45:36.719Z,20.00
2018-12-19T08:48:04.223Z,22.47
2018-12-19T08:50:31.716Z,21.10
2018-12-19T08:52:59.197Z,22.57
2018-12-19T08:55:26.738Z,19.90
2018-12-19T08:57:54.216Z,18.67
2018-12-19T09:00:21.731Z,20.63
2018-12-19T09:02:49.251Z,20.73
2018-12-19T09:05:16.861Z,18.63
2018-12-19T09:07:44.337Z,20.03
2018-12-19T09:10:11.859Z,18.77
2018-12-19T09:12:39.329Z,21.10
2018-12-19T09:15:07.029Z,19.47
2018-12-19T09:17:35.827Z,21.10
2018-12-19T09:20:04.455Z,18.40
2018-12-19T09:22:32.017Z,18.97
2018-12-19T09:24:59.504Z,21.73
2018-12-19T09:27:27.029Z,24.10
2018-12-19T09:29:54.534Z,22.37
2018-12-19T09:32:22.004Z,21.83
2018-12-19T09:34:49.529Z,20.17
2018-12-19T09:37:17.045Z,20.50
2018-12-19T09:39:44.560Z,22.23
2018-12-19T09:42:12.082Z,18.10
2018-12-19T09:44:39.651Z,17.63
2018-12-19T09:47:07.215Z,20.10
2018-12-19T09:49:34.807Z,19.17
2018-12-19T09:52:02.307Z,18.33
2018-12-19T09:54:29.790Z,18.27
2018-12-19T09:56:57.374Z,18.03
2018-12-19T09:59:24.860Z,15.73
2018-12-19T10:01:52.366Z,20.70
2018-12-19T10:04:19.854Z,16.53
2018-12-19T10:06:47.394Z,20.67
2018-12-19T10:09:15.204Z,17.30
2018-12-19T10:11:43.025Z,17.07
2018-12-19T10:14:10.600Z,17.40
2018-12-19T10:16:38.192Z,17.37
2018-12-19T10:19:05.665Z,18.70
2018-12-19T10:21:33.165Z,17.50
2018-12-19T10:24:00.732Z,18.40
2018-12-19T10:26:28.225Z,19.10
2018-12-19T10:28:55.811Z,18.87
2018-12-19T10:31:23.285Z,16.57
2018-12-19T10:33:50.769Z,17.00
2018-12-19T10:36:20.167Z,18.47
2018-12-19T10:38:47.642Z,18.60
2018-12-19T10:41:15.338Z,16.20
2018-12-19T10:43:42.794Z,15.73
2018-12-19T10:46:10.299Z,17.73
2018-12-19T10:48:37.795Z,18.87
2018-12-19T10:51:05.330Z,15.73
2018-12-19T10:53:33.803Z,19.90
2018-12-19T10:56:01.593Z,16.57
2018-12-19T10:58:29.132Z,18.03
2018-12-19T11:00:59.657Z,17.47
2018-12-19T11:03:27.248Z,15.67
2018-12-19T11:05:54.799Z,18.50
2018-12-19T11:08:22.311Z,16.77
2018-12-19T11:10:49.834Z,18.70
2018-12-19T11:13:17.345Z,18.20
2018-12-19T11:15:44.950Z,20.90
2018-12-19T11:18:12.708Z,18.63
2018-12-19T11:20:40.194Z,18.50
2018-12-19T11:23:07.686Z,19.40
2018-12-19T11:25:35.183Z,17.30
2018-12-19T11:28:02.674Z,17.10
2018-12-19T11:30:30.156Z,17.17
2018-12-19T11:32:57.650Z,18.00
2018-12-19T11:35:25.129Z,17.77
2018-12-19T11:37:52.639Z,17.20
2018-12-19T11:40:20.140Z,18.67
2018-12-19T11:42:47.636Z,17.50
2018-12-19T11:45:15.131Z,19.43
2018-12-19T11:47:42.618Z,18.23
2018-12-19T11:50:10.190Z,16.33
2018-12-19T11:52:37.703Z,15.70
2018-12-19T11:55:05.395Z,22.77
2018-12-19T11:57:34.385Z,18.13
2018-12-19T12:00:02.018Z,17.50
2018-12-19T12:02:29.518Z,21.03
2018-12-19T12:04:57.076Z,15.53
2018-12-19T12:07:24.758Z,17.63
2018-12-19T12:09:52.434Z,17.00
2018-12-19T12:12:19.917Z,15.63
2018-12-19T12:14:47.427Z,16.57
2018-12-19T12:17:14.941Z,16.57
2018-12-19T12:19:42.441Z,18.10
2018-12-19T12:22:09.975Z,22.03
2018-12-19T12:24:37.445Z,16.07
2018-12-19T12:27:04.965Z,17.87
2018-12-19T12:29:32.451Z,17.40
2018-12-19T12:31:59.945Z,17.63
2018-12-19T12:34:27.504Z,18.00
2018-12-19T12:36:55.102Z,17.47
2018-12-19T12:39:22.617Z,18.83
2018-12-19T12:41:52.457Z,19.63
2018-12-19T12:44:19.643Z,15.33
2018-12-19T12:46:47.122Z,19.53
2018-12-19T12:49:14.617Z,20.33
2018-12-19T12:51:42.154Z,15.57
2018-12-19T12:54:09.698Z,17.13
2018-12-19T12:56:37.232Z,19.23
2018-12-19T12:59:04.763Z,16.53
2018-12-19T13:01:32.321Z,16.30
2018-12-19T13:03:59.889Z,17.67
2018-12-19T13:06:27.377Z,17.57
2018-12-19T13:08:54.893Z,18.47
2018-12-19T13:11:22.384Z,16.60
2018-12-19T13:13:49.915Z,18.57
2018-12-19T13:16:17.394Z,17.83
2018-12-19T13:18:44.878Z,17.77
2018-12-19T13:21:12.521Z,15.37
2018-12-19T13:23:40.037Z,18.90
2018-12-19T13:26:07.563Z,20.50
2018-12-19T13:28:35.100Z,16.07
2018-12-19T13:31:02.570Z,16.33
2018-12-19T13:33:30.110Z,16.77
2018-12-19T13:35:57.600Z,17.30
2018-12-19T13:38:25.135Z,17.23
2018-12-19T13:40:52.613Z,17.97
2018-12-19T13:43:20.136Z,16.93
2018-12-19T13:45:47.674Z,16.00
2018-12-19T13:48:15.170Z,17.80
2018-12-19T13:50:42.685Z,19.27
2018-12-19T13:53:10.178Z,15.93
2018-12-19T13:55:37.780Z,16.47
2018-12-19T13:58:07.107Z,17.03
2018-12-19T14:00:34.894Z,18.60
2018-12-19T14:03:02.469Z,17.77
2018-12-19T14:05:30.123Z,19.53
2018-12-19T14:07:57.607Z,14.87
2018-12-19T14:10:25.121Z,17.43
2018-12-19T14:12:52.628Z,18.30
2018-12-19T14:15:21.349Z,15.50
2018-12-19T14:17:48.846Z,17.97
2018-12-19T14:20:16.419Z,17.10
2018-12-19T14:22:43.976Z,17.10
2018-12-19T14:25:11.456Z,18.07
2018-12-19T14:27:38.960Z,17.60
2018-12-19T14:30:08.574Z,16.90
2018-12-19T14:32:36.054Z,17.67
2018-12-19T14:35:03.882Z,17.63
2018-12-19T14:37:31.405Z,18.63
2018-12-19T14:39:58.917Z,16.13
2018-12-19T14:42:26.396Z,20.40
2018-12-19T14:44:53.896Z,18.07
2018-12-19T14:47:21.382Z,16.80
2018-12-19T14:49:48.889Z,17.40
2018-12-19T14:52:16.371Z,19.00
2018-12-19T14:54:43.867Z,16.90
2018-12-19T14:57:11.371Z,17.90
2018-12-19T14:59:38.875Z,18.10
2018-12-19T15:02:06.377Z,18.20
2018-12-19T15:04:33.863Z,16.67
2018-12-19T15:07:01.358Z,18.63
2018-12-19T15:09:28.870Z,17.33
2018-12-19T15:11:56.423Z,16.80
2018-12-19T15:14:23.913Z,17.60
2018-12-19T15:16:51.409Z,16.47
2018-12-19T15:19:18.930Z,17.23
2018-12-19T15:21:46.411Z,17.40
2018-12-19T15:24:13.959Z,14.30
2018-12-19T15:26:41.466Z,17.30
2018-12-19T15:29:09.063Z,18.60
2018-12-19T15:31:36.621Z,18.13
2018-12-19T15:34:04.184Z,18.47
2018-12-19T15:36:31.684Z,16.73
2018-12-19T15:38:59.189Z,18.10
2018-12-19T15:41:26.782Z,16.13
2018-12-19T15:43:54.339Z,18.40
2018-12-19T15:46:21.836Z,18.80
2018-12-19T15:48:49.361Z,16.30
2018-12-19T15:51:16.854Z,17.13
2018-12-19T15:53:44.342Z,15.90
2018-12-19T15:56:11.843Z,17.63
2018-12-19T15:58:39.328Z,17.80
2018-12-19T16:01:06.832Z,17.93
2018-12-19T16:03:34.390Z,18.10
2018-12-19T16:06:01.912Z,18.97
2018-12-19T16:08:29.400Z,16.47
2018-12-19T16:10:56.910Z,18.53
2018-12-19T16:13:24.406Z,18.43
2018-12-19T16:15:51.883Z,18.20
2018-12-19T16:18:19.456Z,18.20
2018-12-19T16:20:46.940Z,15.43
2018-12-19T16:23:14.477Z,16.70
2018-12-19T16:25:42.037Z,17.93
2018-12-19T16:28:09.554Z,18.60
2018-12-19T16:30:37.157Z,19.93
2018-12-19T16:33:04.720Z,20.17
2018-12-19T16:35:32.215Z,18.47
2018-12-19T16:37:59.713Z,16.47
2018-12-19T16:40:27.201Z,16.57
2018-12-19T16:42:54.766Z,17.40
2018-12-19T16:45:22.288Z,16.97
2018-12-19T16:47:49.780Z,17.50
2018-12-19T16:50:17.267Z,18.77
2018-12-19T16:52:44.762Z,17.57
2018-12-19T16:55:12.257Z,17.20
2018-12-19T16:57:39.792Z,17.47
2018-12-19T17:00:09.110Z,17.30
2018-12-19T17:02:36.619Z,17.83
2018-12-19T17:05:05.522Z,18.10
2018-12-19T17:07:33.021Z,18.10
2018-12-19T17:10:00.566Z,17.70
2018-12-19T17:12:28.067Z,16.93
2018-12-19T17:14:55.625Z,16.97
2018-12-19T17:17:23.250Z,17.87
2018-12-19T17:19:50.837Z,21.60
2018-12-19T17:22:18.316Z,17.73
2018-12-19T17:24:45.843Z,20.10
2018-12-19T17:27:13.331Z,18.30
2018-12-19T17:29:40.880Z,20.10
2018-12-19T17:32:08.366Z,21.10
2018-12-19T17:34:35.848Z,19.00
2018-12-19T17:37:03.348Z,19.10
2018-12-19T17:39:30.840Z,20.17
2018-12-19T17:41:58.357Z,17.33
2018-12-19T17:44:25.955Z,19.53
2018-12-19T17:46:53.470Z,17.43
2018-12-19T17:49:20.971Z,21.10
2018-12-19T17:51:48.489Z,19.57
2018-12-19T17:54:16.065Z,19.93
2018-12-19T17:56:43.557Z,20.53
2018-12-19T17:59:11.085Z,20.67
2018-12-19T18:01:38.596Z,20.87
2018-12-19T18:04:06.119Z,19.87
2018-12-19T18:06:33.582Z,21.00
2018-12-19T18:09:01.097Z,18.93
2018-12-19T18:11:28.598Z,20.10
2018-12-19T18:13:56.309Z,21.03
2018-12-19T18:16:23.789Z,19.70
2018-12-19T18:18:51.375Z,21.20
2018-12-19T18:21:18.841Z,20.27
2018-12-19T18:23:46.421Z,17.80
2018-12-19T18:26:13.908Z,19.47
2018-12-19T18:28:41.443Z,20.37
2018-12-19T18:31:08.925Z,20.30
2018-12-19T18:33:36.429Z,22.07
2018-12-19T18:36:04.018Z,22.83
2018-12-19T18:38:31.530Z,20.80
2018-12-19T18:40:59.113Z,20.13
2018-12-19T18:43:26.622Z,27.67
2018-12-19T18:45:54.131Z,24.87
2018-12-19T18:48:21.731Z,24.37
2018-12-19T18:50:49.270Z,26.87
2018-12-19T18:53:16.812Z,27.57
2018-12-19T18:55:44.311Z,22.93
2018-12-19T18:58:11.816Z,22.83
2018-12-19T19:00:39.516Z,24.10
2018-12-19T19:03:07.111Z,25.10
2018-12-19T19:05:34.680Z,24.87
2018-12-19T19:08:02.241Z,22.20
2018-12-19T19:10:29.848Z,23.73
2018-12-19T19:12:57.339Z,22.97
2018-12-19T19:15:24.856Z,21.57
2018-12-19T19:17:52.447Z,23.47
2018-12-19T19:20:19.993Z,21.93
2018-12-19T19:22:47.544Z,23.90
2018-12-19T19:25:15.320Z,22.67
2018-12-19T19:27:43.051Z,22.20
2018-12-19T19:30:10.545Z,24.07
2018-12-19T19:32:38.025Z,22.97
2018-12-19T19:35:05.769Z,22.57
2018-12-19T19:37:33.688Z,23.33
2018-12-19T19:40:01.293Z,25.50
2018-12-19T19:42:28.831Z,21.70
2018-12-19T19:44:56.305Z,23.70
2018-12-19T19:47:23.804Z,27.03
2018-12-19T19:49:51.304Z,25.17
2018-12-19T19:52:18.787Z,24.43
2018-12-19T19:54:46.377Z,25.23
2018-12-19T19:57:13.918Z,26.30
2018-12-19T19:59:41.708Z,25.50
2018-12-19T20:02:09.205Z,25.40
2018-12-19T20:04:36.978Z,24.13
2018-12-19T20:07:04.488Z,22.93
2018-12-19T20:09:31.973Z,24.73
2018-12-19T20:11:59.465Z,24.43
2018-12-19T20:14:26.969Z,25.37
2018-12-19T20:17:00.844Z,23.50
2018-12-19T20:19:28.726Z,22.37
2018-12-19T20:21:56.287Z,24.93
2018-12-19T20:24:23.789Z,24.17
2018-12-19T20:26:51.280Z,22.73
2018-12-19T20:29:18.777Z,23.17
2018-12-19T20:31:46.283Z,24.40
2018-12-19T20:34:13.771Z,23.63
2018-12-19T20:36:41.341Z,23.83
2018-12-19T20:39:09.281Z,23.00
2018-12-19T20:41:36.875Z,22.57
2018-12-19T20:44:04.338Z,22.23
2018-12-19T20:46:31.892Z,24.77
2018-12-19T20:48:59.377Z,22.10
2018-12-19T20:51:26.860Z,21.87
2018-12-19T20:53:54.413Z,23.07
2018-12-19T20:56:21.992Z,24.27
2018-12-19T20:58:49.708Z,25.87
2018-12-19T21:01:17.202Z,27.73
2018-12-19T21:03:45.301Z,27.47
2018-12-19T21:06:13.102Z,22.50
2018-12-19T21:08:40.593Z,25.97
2018-12-19T21:11:08.073Z,25.83
2018-12-19T21:13:35.568Z,25.27
2018-12-19T21:16:03.136Z,28.13
2018-12-19T21:18:36.182Z,28.90
2018-12-19T21:21:03.769Z,29.13
2018-12-19T21:23:32.154Z,26.43
2018-12-19T21:25:59.623Z,24.07
2018-12-19T21:28:27.193Z,28.63
2018-12-19T21:30:54.669Z,26.20
2018-12-19T21:33:22.160Z,25.73
2018-12-19T21:35:49.640Z,26.33
2018-12-19T21:38:17.121Z,25.17
2018-12-19T21:40:44.638Z,24.40
2018-12-19T21:43:12.260Z,25.90
2018-12-19T21:45:39.927Z,29.63
2018-12-19T21:48:07.517Z,26.40
2018-12-19T21:50:35.066Z,23.07
2018-12-19T21:53:02.646Z,28.07
2018-12-19T21:55:30.147Z,25.93
2018-12-19T21:57:57.742Z,25.80
2018-12-19T22:00:25.330Z,26.57
2018-12-19T22:02:52.811Z,26.50
2018-12-19T22:05:20.432Z,26.00
2018-12-19T22:07:47.936Z,24.93
2018-12-19T22:10:15.629Z,28.80
2018-12-19T22:12:43.348Z,27.13
2018-12-19T22:15:10.909Z,26.53
2018-12-19T22:17:43.979Z,27.23
2018-12-19T22:20:11.510Z,28.87
2018-12-19T22:22:39.140Z,31.80
2018-12-19T22:25:06.748Z,24.07
2018-12-19T22:27:34.458Z,26.53
2018-12-19T22:30:02.171Z,26.80
2018-12-19T22:32:29.641Z,25.23
2018-12-19T22:34:57.197Z,29.17
2018-12-19T22:37:24.694Z,26.77
2018-12-19T22:39:52.383Z,27.40
2018-12-19T22:42:19.952Z,28.10
2018-12-19T22:44:47.690Z,27.27
2018-12-19T22:47:15.228Z,28.63
2018-12-19T22:49:42.900Z,27.93
2018-12-19T22:52:10.389Z,25.67
2018-12-19T22:54:37.865Z,27.40
2018-12-19T22:57:05.529Z,27.60
2018-12-19T22:59:33.063Z,26.77
2018-12-19T23:02:06.637Z,23.17
2018-12-19T23:04:34.339Z,23.30
2018-12-19T23:07:02.121Z,25.83
2018-12-19T23:09:29.733Z,26.17
2018-12-19T23:11:57.315Z,23.73
2018-12-19T23:14:24.855Z,25.37
2018-12-19T23:16:52.397Z,29.47
2018-12-19T23:19:19.938Z,28.60
2018-12-19T23:21:47.449Z,25.83
2018-12-19T23:24:15.053Z,24.93
2018-12-19T23:26:42.602Z,25.27
2018-12-19T23:29:10.178Z,26.30
2018-12-19T23:31:37.803Z,24.67
2018-12-19T23:34:05.450Z,25.93
2018-12-19T23:36:33.047Z,25.80
2018-12-19T23:39:00.865Z,25.37
2018-12-19T23:41:28.417Z,26.70
2018-12-19T23:43:55.994Z,28.17
2018-12-19T23:46:23.803Z,27.63
2018-12-19T23:48:51.389Z,23.90
2018-12-19T23:51:19.014Z,24.77
2018-12-19T23:53:46.501Z,27.70
2018-12-19T23:56:14.150Z,26.63
2018-12-19T23:58:41.828Z,29.60
